Time;durP1;ratioP1;P1;durP2;ratioP2;P2;SDS_P1;SDS_P2;PMS_P1;PMS_P2;Temp;Humidity;BMP_temperature;BMP_pressure;BME280_temperature;BME280_humidity;BME280_pressure;Samples;Min_cycle;Max_cycle;Signal;HPM_P1;HPM_P2
2022/07/16 00:03:38;;;;;;;3.90;3.37;;;18.90;55.00;;;;;;7379925;19;20384;-49
2022/07/16 00:06:08;;;;;;;5.93;3.67;;;18.90;55.10;;;;;;7385765;19;20399;-50
2022/07/16 00:08:37;;;;;;;3.60;3.00;;;18.90;54.90;;;;;;7379759;19;20384;-49
2022/07/16 00:11:07;;;;;;;5.77;3.03;;;18.80;55.10;;;;;;7382315;19;20361;-49
2022/07/16 00:13:38;;;;;;;4.63;3.53;;;18.80;55.10;;;;;;7379485;19;20384;-49
2022/07/16 00:16:12;;;;;;;4.80;3.10;;;18.70;55.50;;;;;;7383294;19;20878;-49
2022/07/16 00:21:23;;;;;;;5.90;3.30;;;18.80;55.70;;;;;;7374457;19;20390;-49
2022/07/16 00:23:53;;;;;;;6.40;3.03;;;19.00;55.20;;;;;;7385363;19;21171;-50
2022/07/16 00:26:25;;;;;;;4.33;3.30;;;19.00;54.60;;;;;;7377738;19;20805;-50
2022/07/16 00:28:54;;;;;;;5.47;4.17;;;18.90;54.80;;;;;;7383928;19;20961;-49
2022/07/16 00:31:26;;;;;;;5.53;3.73;;;18.80;55.40;;;;;;7379172;19;20443;-48
2022/07/16 00:33:56;;;;;;;5.67;2.60;;;18.90;55.00;;;;;;7385335;19;20487;-48
2022/07/16 00:36:25;;;;;;;3.37;2.97;;;18.80;55.00;;;;;;7384615;19;20384;-48
2022/07/16 00:38:54;;;;;;;5.60;3.23;;;18.60;55.40;;;;;;7382404;19;20388;-49
2022/07/16 00:41:24;;;;;;;4.33;3.00;;;18.70;55.60;;;;;;7377704;19;20443;-45
2022/07/16 00:44:01;;;;;;;4.57;3.20;;;18.60;55.60;;;;;;7379766;19;20934;-45
2022/07/16 00:46:33;;;;;;;3.37;2.97;;;18.70;55.30;;;;;;7380791;19;20375;-44
2022/07/16 00:49:03;;;;;;;4.97;3.80;;;18.60;55.50;;;;;;7381029;19;20372;-45
2022/07/16 00:51:36;;;;;;;3.50;3.00;;;18.60;55.30;;;;;;7382528;19;20409;-45
2022/07/16 00:54:06;;;;;;;4.13;3.50;;;18.60;55.30;;;;;;7379547;19;20385;-44
2022/07/16 00:56:36;;;;;;;3.73;3.40;;;18.50;55.70;;;;;;7380433;19;20388;-45
2022/07/16 00:59:06;;;;;;;4.60;3.60;;;18.50;55.60;;;;;;7382402;19;20372;-44
2022/07/16 01:01:38;;;;;;;4.40;3.23;;;18.50;55.70;;;;;;7379434;19;20958;-45
2022/07/16 01:04:10;;;;;;;5.73;3.20;;;18.50;55.70;;;;;;7381098;19;20364;-45
2022/07/16 01:06:40;;;;;;;3.57;2.90;;;18.60;55.80;;;;;;7381653;19;20372;-46
2022/07/16 01:09:10;;;;;;;5.23;3.83;;;18.50;55.80;;;;;;7378193;19;20377;-45
2022/07/16 01:11:39;;;;;;;4.77;3.40;;;18.60;55.60;;;;;;7379304;19;20788;-45
2022/07/16 01:14:10;;;;;;;4.30;3.17;;;18.40;55.80;;;;;;7379713;19;20925;-44
2022/07/16 01:16:42;;;;;;;5.27;2.93;;;18.30;56.10;;;;;;7381816;19;20387;-44
2022/07/16 01:19:12;;;;;;;3.50;2.90;;;18.30;56.30;;;;;;7377668;19;20362;-44
2022/07/16 01:21:42;;;;;;;4.13;3.47;;;18.50;55.90;;;;;;7381229;19;20364;-44
2022/07/16 01:24:15;;;;;;;3.13;2.83;;;18.50;55.50;;;;;;7381438;19;20409;-44
2022/07/16 01:26:44;;;;;;;6.70;3.00;;;18.30;56.00;;;;;;7377761;19;20540;-44
2022/07/16 01:29:13;;;;;;;4.50;3.20;;;18.20;56.20;;;;;;7384346;19;20401;-45
2022/07/16 01:31:43;;;;;;;5.83;3.33;;;18.10;56.40;;;;;;7380146;19;20448;-44
2022/07/16 01:34:28;;;;;;;4.00;3.33;;;18.00;56.90;;;;;;7378184;19;20467;-45
2022/07/16 01:37:03;;;;;;;3.50;3.00;;;17.90;57.20;;;;;;7379233;19;20404;-45
2022/07/16 01:39:37;;;;;;;4.80;3.03;;;17.90;57.10;;;;;;7377432;19;20384;-45
2022/07/16 01:42:10;;;;;;;6.83;2.93;;;17.90;57.30;;;;;;7378142;19;20382;-45
2022/07/16 01:44:40;;;;;;;3.90;3.40;;;17.90;57.30;;;;;;7379291;19;20365;-45
2022/07/16 01:47:10;;;;;;;6.10;2.70;;;17.70;57.60;;;;;;7376846;19;20376;-45
2022/07/16 01:49:41;;;;;;;3.13;2.70;;;17.80;57.60;;;;;;7380834;19;20373;-45
2022/07/16 01:52:12;;;;;;;4.70;3.03;;;17.90;57.20;;;;;;7381512;19;20409;-45
2022/07/16 01:54:48;;;;;;;4.00;2.77;;;17.90;57.30;;;;;;7378890;19;20383;-45
2022/07/16 01:57:18;;;;;;;3.37;2.80;;;17.90;57.10;;;;;;7378848;19;20384;-44
2022/07/16 01:59:48;;;;;;;5.97;2.80;;;17.90;57.30;;;;;;7377381;19;20797;-45
2022/07/16 02:02:18;;;;;;;5.77;3.40;;;17.90;57.10;;;;;;7376534;19;20384;-45
2022/07/16 02:04:49;;;;;;;5.00;2.60;;;17.90;57.10;;;;;;7375972;19;20376;-47
2022/07/16 02:07:19;;;;;;;5.53;3.17;;;17.90;57.10;;;;;;7379619;19;20376;-45
2022/07/16 02:09:51;;;;;;;3.97;3.60;;;17.70;57.20;;;;;;7377178;19;20383;-45
2022/07/16 02:12:20;;;;;;;6.00;3.30;;;17.60;57.80;;;;;;7379956;19;21112;-46
2022/07/16 02:14:52;;;;;;;4.03;3.00;;;17.50;58.10;;;;;;7377189;19;20368;-44
2022/07/16 02:17:22;;;;;;;5.20;3.40;;;17.30;58.30;;;;;;7377202;19;20380;-50
2022/07/16 02:19:51;;;;;;;3.47;3.17;;;17.30;58.50;;;;;;7378757;19;20368;-50
2022/07/16 02:22:21;;;;;;;3.33;2.93;;;17.30;58.70;;;;;;7380873;19;21001;-49
2022/07/16 02:24:53;;;;;;;4.50;2.77;;;17.40;58.40;;;;;;7378378;19;20710;-50
2022/07/16 02:27:22;;;;;;;4.10;3.70;;;17.40;58.50;;;;;;7375341;19;21412;-50
2022/07/16 02:29:55;;;;;;;5.70;3.20;;;17.40;58.40;;;;;;7373635;19;20368;-49
2022/07/16 02:32:24;;;;;;;5.07;2.83;;;17.20;58.80;;;;;;7377039;19;20376;-49
2022/07/16 02:34:56;;;;;;;5.20;2.90;;;17.20;58.90;;;;;;7374945;19;20766;-49
2022/07/16 02:37:25;;;;;;;7.40;3.37;;;17.20;58.90;;;;;;7380690;19;20385;-49
2022/07/16 02:40:00;;;;;;;4.70;3.23;;;17.10;59.00;;;;;;7380543;19;20421;-49
2022/07/16 02:42:30;;;;;;;3.63;2.90;;;17.10;59.10;;;;;;7377587;19;20378;-49
2022/07/16 02:44:59;;;;;;;6.20;3.20;;;17.20;58.90;;;;;;7376805;19;20372;-49
2022/07/16 02:47:29;;;;;;;4.10;2.97;;;17.20;58.90;;;;;;7378516;19;20432;-49
2022/07/16 02:49:58;;;;;;;3.57;3.13;;;17.20;58.90;;;;;;7377250;19;21189;-49
2022/07/16 02:52:27;;;;;;;6.20;3.00;;;17.20;58.90;;;;;;7377446;19;20813;-48
2022/07/16 02:54:59;;;;;;;4.10;3.43;;;17.20;58.80;;;;;;7380417;19;20362;-49
2022/07/16 02:57:29;;;;;;;4.17;2.90;;;17.10;58.90;;;;;;7379783;19;20441;-50
2022/07/16 02:59:58;;;;;;;3.23;2.80;;;16.90;59.20;;;;;;7375858;19;20440;-49
2022/07/16 03:02:28;;;;;;;4.10;3.00;;;16.80;59.50;;;;;;7376003;19;20457;-49
2022/07/16 03:04:57;;;;;;;3.80;2.67;;;16.80;59.40;;;;;;7377754;19;20731;-49
2022/07/16 03:07:27;;;;;;;4.20;3.00;;;16.90;59.60;;;;;;7379711;19;20401;-50
2022/07/16 03:09:59;;;;;;;5.47;3.37;;;16.90;59.20;;;;;;7377881;19;20428;-49
2022/07/16 03:12:29;;;;;;;7.03;3.43;;;16.90;59.30;;;;;;7388886;19;20372;-49
2022/07/16 03:14:59;;;;;;;4.83;2.73;;;16.80;59.40;;;;;;7383833;19;20512;-49
2022/07/16 03:17:28;;;;;;;4.67;2.60;;;16.90;59.20;;;;;;7382943;19;20455;-49
2022/07/16 03:19:57;;;;;;;9.37;3.17;;;17.00;59.00;;;;;;7384387;19;20417;-49
2022/07/16 03:22:29;;;;;;;7.13;2.97;;;17.10;58.80;;;;;;7383964;19;20385;-48
2022/07/16 03:25:02;;;;;;;4.70;2.80;;;16.90;59.00;;;;;;7382045;19;20513;-49
2022/07/16 03:27:31;;;;;;;3.73;2.47;;;16.70;59.60;;;;;;7387511;19;20380;-49
2022/07/16 03:30:00;;;;;;;4.20;2.60;;;16.60;59.90;;;;;;7386763;19;20413;-50
2022/07/16 03:32:30;;;;;;;4.90;2.63;;;16.60;60.00;;;;;;7384909;19;20387;-49
2022/07/16 03:34:59;;;;;;;3.90;2.43;;;16.50;60.00;;;;;;7384068;19;20729;-49
2022/07/16 03:37:29;;;;;;;4.07;3.20;;;16.60;60.10;;;;;;7383600;19;20427;-49
2022/07/16 03:40:01;;;;;;;3.97;3.07;;;16.70;60.00;;;;;;7388104;19;20925;-50
2022/07/16 03:42:30;;;;;;;4.00;3.20;;;16.60;59.90;;;;;;7381108;19;20372;-49
2022/07/16 03:45:00;;;;;;;6.00;3.07;;;16.60;59.80;;;;;;7381161;19;20744;-49
2022/07/16 03:47:29;;;;;;;4.53;2.97;;;16.60;60.00;;;;;;7382070;19;20356;-49
2022/07/16 03:49:59;;;;;;;4.23;2.50;;;16.50;60.20;;;;;;7385527;19;20433;-49
2022/07/16 03:52:31;;;;;;;7.17;3.37;;;16.50;60.20;;;;;;7380531;19;20417;-49
2022/07/16 03:55:03;;;;;;;6.80;3.23;;;16.40;60.30;;;;;;7384791;19;20785;-48
2022/07/16 03:57:32;;;;;;;3.60;2.33;;;16.50;60.00;;;;;;7387055;19;20368;-49
2022/07/16 04:00:02;;;;;;;3.27;2.50;;;16.50;59.70;;;;;;7379133;19;20425;-50
2022/07/16 04:02:33;;;;;;;5.40;2.57;;;16.50;59.50;;;;;;7384287;19;20473;-49
2022/07/16 04:05:03;;;;;;;3.30;2.83;;;16.70;59.40;;;;;;7382495;19;20901;-49
2022/07/16 04:07:32;;;;;;;5.70;2.43;;;16.80;58.90;;;;;;7387097;19;20416;-49
2022/07/16 04:10:05;;;;;;;2.60;2.40;;;17.00;58.60;;;;;;7383445;19;20437;-49
2022/07/16 04:12:35;;;;;;;5.67;2.80;;;17.00;58.40;;;;;;7384082;19;20392;-49
2022/07/16 04:15:05;;;;;;;3.10;2.43;;;17.20;58.50;;;;;;7379393;19;20961;-49
2022/07/16 04:17:34;;;;;;;2.93;2.67;;;17.20;58.00;;;;;;7384910;19;20402;-49
2022/07/16 04:20:04;;;;;;;3.40;2.77;;;17.30;58.00;;;;;;7384695;19;20384;-49
2022/07/16 04:22:35;;;;;;;3.10;2.80;;;17.10;58.00;;;;;;7381104;19;21010;-49
2022/07/16 04:25:08;;;;;;;5.93;2.60;;;16.90;58.80;;;;;;7381779;19;20429;-49
2022/07/16 04:27:37;;;;;;;4.90;2.63;;;16.70;59.40;;;;;;7382333;19;20376;-50
2022/07/16 04:30:11;;;;;;;4.03;2.50;;;16.70;59.60;;;;;;7379204;19;20368;-49
2022/07/16 04:32:42;;;;;;;3.33;2.40;;;16.70;59.70;;;;;;7383614;19;20424;-49
2022/07/16 04:35:13;;;;;;;3.30;2.63;;;16.60;59.90;;;;;;7377758;19;21022;-49
2022/07/16 04:37:43;;;;;;;6.13;3.27;;;16.50;60.60;;;;;;7385854;19;20379;-49
2022/07/16 04:40:16;;;;;;;5.40;2.93;;;16.50;60.80;;;;;;7384235;19;20822;-49
2022/07/16 04:42:47;;;;;;;3.60;2.60;;;16.40;61.40;;;;;;7382090;19;20368;-49
2022/07/16 04:45:16;;;;;;;3.50;2.60;;;16.40;61.80;;;;;;7378140;19;20473;-50
2022/07/16 04:47:46;;;;;;;3.83;2.37;;;16.40;62.20;;;;;;7383791;19;20416;-49
2022/07/16 04:50:15;;;;;;;3.07;2.60;;;16.30;62.60;;;;;;7376604;19;20372;-45
2022/07/16 04:52:45;;;;;;;5.30;2.77;;;16.50;62.70;;;;;;7384687;19;20409;-44
2022/07/16 04:55:17;;;;;;;3.90;3.20;;;16.50;62.40;;;;;;7385280;19;20376;-44
2022/07/16 04:57:46;;;;;;;4.83;2.90;;;16.60;62.20;;;;;;7381309;19;20376;-45
2022/07/16 05:00:17;;;;;;;4.07;2.97;;;16.60;62.10;;;;;;7375832;19;20428;-44
2022/07/16 05:03:01;;;;;;;3.20;2.63;;;16.80;62.20;;;;;;7381552;19;20496;-44
2022/07/16 05:05:32;;;;;;;3.33;2.70;;;17.10;61.60;;;;;;7384164;19;20360;-45
2022/07/16 05:08:02;;;;;;;3.63;2.80;;;17.50;60.20;;;;;;7383791;19;20747;-44
2022/07/16 05:10:35;;;;;;;3.80;2.87;;;17.80;59.50;;;;;;7380289;19;20372;-45
2022/07/16 05:13:05;;;;;;;5.33;2.77;;;17.80;58.90;;;;;;7379177;19;20368;-44
2022/07/16 05:15:34;;;;;;;4.40;2.87;;;17.90;58.30;;;;;;7380690;19;20889;-44
2022/07/16 05:18:04;;;;;;;4.87;2.73;;;18.00;58.30;;;;;;7381719;19;20364;-44
2022/07/16 05:20:33;;;;;;;7.40;2.80;;;18.30;58.30;;;;;;7380271;19;20423;-45
2022/07/16 05:23:03;;;;;;;4.00;2.50;;;18.40;57.50;;;;;;7385115;19;20449;-45
2022/07/16 05:25:35;;;;;;;4.67;2.90;;;18.50;57.80;;;;;;7376756;19;20491;-44
2022/07/16 05:28:05;;;;;;;3.63;3.00;;;18.50;57.80;;;;;;7388339;19;20805;-45
2022/07/16 05:30:34;;;;;;;3.83;2.83;;;18.70;57.60;;;;;;7381953;19;20372;-45
2022/07/16 05:33:06;;;;;;;3.97;2.77;;;18.80;57.10;;;;;;7379063;19;20800;-45
2022/07/16 05:35:36;;;;;;;3.73;2.53;;;19.00;56.70;;;;;;7382704;19;20372;-45
2022/07/16 05:38:06;;;;;;;4.70;3.23;;;19.20;56.20;;;;;;7382119;19;20463;-45
2022/07/16 05:40:38;;;;;;;6.03;3.60;;;19.20;56.10;;;;;;7384451;19;20371;-44
2022/07/16 05:43:08;;;;;;;2.57;2.37;;;19.40;55.80;;;;;;7380859;19;20412;-44
2022/07/16 05:45:38;;;;;;;3.00;2.67;;;19.40;55.60;;;;;;7375195;19;20917;-45
2022/07/16 05:48:08;;;;;;;3.40;3.00;;;19.50;55.50;;;;;;7382011;19;20392;-45
2022/07/16 05:50:38;;;;;;;3.63;2.80;;;19.60;55.20;;;;;;7378025;19;20420;-45
2022/07/16 05:53:09;;;;;;;5.30;2.93;;;19.60;55.10;;;;;;7369926;19;20397;-45
2022/07/16 05:55:42;;;;;;;5.97;3.43;;;19.70;55.00;;;;;;7368213;19;20409;-45
2022/07/16 05:58:11;;;;;;;5.93;3.37;;;19.80;54.80;;;;;;7385651;19;20384;-45
2022/07/16 06:00:44;;;;;;;3.67;2.90;;;19.80;54.60;;;;;;7378029;19;21113;-45
2022/07/16 06:03:14;;;;;;;7.57;2.73;;;20.00;54.10;;;;;;7382786;19;20720;-45
2022/07/16 06:05:43;;;;;;;3.80;2.40;;;20.10;53.80;;;;;;7376485;19;20376;-44
2022/07/16 06:08:13;;;;;;;3.23;2.70;;;20.20;53.80;;;;;;7370535;19;20408;-45
2022/07/16 06:10:45;;;;;;;4.00;2.83;;;20.30;52.70;;;;;;7379692;19;20369;-45
2022/07/16 06:13:14;;;;;;;5.63;3.00;;;20.40;51.40;;;;;;7377396;19;20906;-45
2022/07/16 06:15:44;;;;;;;3.57;2.37;;;20.40;51.60;;;;;;7373006;19;20963;-45
2022/07/16 06:18:13;;;;;;;3.00;2.20;;;20.50;50.40;;;;;;7376517;19;20368;-45
2022/07/16 06:20:43;;;;;;;2.73;2.10;;;20.70;50.20;;;;;;7376827;19;20376;-45
2022/07/16 06:23:12;;;;;;;4.13;2.50;;;20.80;49.90;;;;;;7374854;19;20376;-45
2022/07/16 06:25:44;;;;;;;3.57;3.03;;;20.90;49.90;;;;;;7378472;19;20924;-45
2022/07/16 06:28:14;;;;;;;4.67;3.20;;;21.10;49.20;;;;;;7371393;19;20383;-45
2022/07/16 06:30:43;;;;;;;4.00;3.33;;;21.30;49.10;;;;;;7374804;19;20368;-49
2022/07/16 06:33:13;;;;;;;3.70;2.83;;;21.40;48.90;;;;;;7375551;19;20372;-49
2022/07/16 06:35:42;;;;;;;3.87;2.50;;;21.50;48.20;;;;;;7382638;19;21068;-49
2022/07/16 06:38:12;;;;;;;4.67;3.07;;;21.70;48.10;;;;;;7375825;19;20386;-49
2022/07/16 06:40:47;;;;;;;5.93;3.20;;;21.80;47.70;;;;;;7378074;19;20421;-49
2022/07/16 06:43:16;;;;;;;4.93;3.20;;;21.80;48.30;;;;;;7375891;19;20378;-49
2022/07/16 06:45:46;;;;;;;3.50;3.10;;;21.90;48.60;;;;;;7374264;19;20413;-49
2022/07/16 06:48:15;;;;;;;5.70;3.17;;;22.00;48.80;;;;;;7384854;19;20368;-48
2022/07/16 06:50:47;;;;;;;4.53;3.07;;;22.20;48.70;;;;;;7383259;19;21008;-49
2022/07/16 06:53:17;;;;;;;5.07;3.93;;;22.30;48.70;;;;;;7385956;19;20412;-49
2022/07/16 06:55:49;;;;;;;6.97;3.70;;;22.30;48.50;;;;;;7385715;19;20368;-50
2022/07/16 06:58:19;;;;;;;5.33;3.70;;;22.20;48.20;;;;;;7382061;19;20441;-49
2022/07/16 07:00:48;;;;;;;4.17;3.57;;;22.20;48.10;;;;;;7380996;19;20451;-49
2022/07/16 07:03:18;;;;;;;3.00;2.70;;;22.40;47.80;;;;;;7385822;19;20379;-49
2022/07/16 07:05:47;;;;;;;4.97;3.00;;;22.60;47.20;;;;;;7379512;19;20376;-49
2022/07/16 07:08:17;;;;;;;4.30;3.63;;;22.70;46.70;;;;;;7385750;19;20401;-49
2022/07/16 07:10:49;;;;;;;3.00;2.70;;;22.80;46.20;;;;;;7382197;19;20387;-45
2022/07/16 07:13:18;;;;;;;3.97;3.60;;;22.70;46.40;;;;;;7376656;19;20756;-45
2022/07/16 07:15:48;;;;;;;9.40;3.30;;;22.70;46.10;;;;;;7366009;19;20368;-45
2022/07/16 07:18:17;;;;;;;3.67;3.23;;;22.70;46.40;;;;;;7379731;19;20389;-45
2022/07/16 07:20:49;;;;;;;3.63;3.30;;;22.90;46.90;;;;;;7377360;19;20376;-45
2022/07/16 07:23:18;;;;;;;4.60;2.47;;;23.00;47.00;;;;;;7375865;19;20404;-45
2022/07/16 07:25:51;;;;;;;3.03;2.70;;;23.10;47.10;;;;;;7374188;19;20395;-46
2022/07/16 07:28:20;;;;;;;3.90;3.40;;;23.20;46.00;;;;;;7389965;19;20376;-45
2022/07/16 07:30:50;;;;;;;3.77;3.40;;;23.30;46.00;;;;;;7378267;19;21159;-45
2022/07/16 07:33:19;;;;;;;4.67;2.60;;;23.40;46.00;;;;;;7372093;19;20924;-45
2022/07/16 07:35:49;;;;;;;10.97;3.40;;;23.50;45.50;;;;;;7386467;19;20371;-45
2022/07/16 07:38:19;;;;;;;4.43;3.30;;;23.50;45.10;;;;;;7378219;19;20715;-45
2022/07/16 07:40:52;;;;;;;5.20;3.13;;;23.60;45.30;;;;;;7387096;19;20420;-45
2022/07/16 07:43:21;;;;;;;9.07;3.50;;;23.70;44.30;;;;;;7386703;19;20376;-45
2022/07/16 07:45:51;;;;;;;6.47;3.60;;;23.60;45.30;;;;;;7373027;19;21402;-45
2022/07/16 07:48:20;;;;;;;4.07;3.40;;;23.70;45.30;;;;;;7383410;19;20472;-45
2022/07/16 07:50:50;;;;;;;3.57;2.80;;;23.60;45.10;;;;;;7381270;19;20391;-46
2022/07/16 07:53:19;;;;;;;5.00;2.87;;;23.70;45.10;;;;;;7377475;19;20372;-45
2022/07/16 07:55:51;;;;;;;7.00;3.00;;;23.90;45.30;;;;;;7378282;19;20379;-45
2022/07/16 07:58:21;;;;;;;3.70;3.13;;;24.10;44.20;;;;;;7378513;19;20384;-46
2022/07/16 08:00:54;;;;;;;4.13;3.10;;;24.30;43.60;;;;;;7372287;19;20428;-45
2022/07/16 08:03:23;;;;;;;4.00;2.23;;;24.50;42.90;;;;;;7381905;19;20447;-45
2022/07/16 08:05:53;;;;;;;3.40;2.60;;;24.50;42.30;;;;;;7367893;19;20376;-45
2022/07/16 08:08:22;;;;;;;4.00;2.40;;;24.60;42.80;;;;;;7376528;19;20408;-45
2022/07/16 08:10:55;;;;;;;5.97;2.83;;;24.80;42.50;;;;;;7387382;19;20373;-49
2022/07/16 08:13:24;;;;;;;2.90;2.07;;;24.90;41.20;;;;;;7384396;19;20463;-49
2022/07/16 08:15:54;;;;;;;2.77;2.53;;;25.00;41.50;;;;;;7378240;19;20446;-49
2022/07/16 08:18:23;;;;;;;5.03;2.13;;;25.10;41.30;;;;;;7382797;19;20368;-49
2022/07/16 08:20:55;;;;;;;4.13;2.30;;;25.10;40.70;;;;;;7379688;19;20375;-49
2022/07/16 08:26:09;;;;;;;3.07;2.27;;;25.40;39.80;;;;;;7376008;19;20960;-50
2022/07/16 08:28:41;;;;;;;2.10;1.80;;;25.60;39.40;;;;;;7370065;19;20365;-49
2022/07/16 08:31:11;;;;;;;3.67;2.13;;;25.70;39.10;;;;;;7376951;19;20372;-49
2022/07/16 08:33:40;;;;;;;4.23;2.00;;;25.60;39.00;;;;;;7373197;19;20376;-49
2022/07/16 08:36:15;;;;;;;3.40;1.90;;;25.90;38.70;;;;;;7386337;19;20386;-49
2022/07/16 08:38:47;;;;;;;2.33;1.90;;;26.00;38.30;;;;;;7383233;19;20443;-49
2022/07/16 08:41:20;;;;;;;1.93;1.73;;;26.20;37.80;;;;;;7380292;19;21154;-49
2022/07/16 08:43:50;;;;;;;3.37;1.77;;;26.30;37.80;;;;;;7383093;19;20447;-49
2022/07/16 08:46:23;;;;;;;6.17;1.80;;;26.10;37.00;;;;;;7377207;19;20372;-49
2022/07/16 08:48:53;;;;;;;2.83;2.10;;;26.20;36.90;;;;;;7381315;19;20730;-50
2022/07/16 08:51:38;;;;;;;2.50;1.67;;;26.10;37.50;;;;;;7379368;19;20933;-49
2022/07/16 08:54:12;;;;;;;6.43;3.30;;;26.30;37.00;;;;;;7379110;19;20368;-49
2022/07/16 08:56:45;;;;;;;5.87;2.30;;;26.60;36.20;;;;;;7378432;19;20984;-49
2022/07/16 08:59:16;;;;;;;2.67;2.10;;;26.50;36.10;;;;;;7368549;19;20388;-49
2022/07/16 09:01:45;;;;;;;2.10;1.70;;;26.60;36.10;;;;;;7371061;19;20919;-49
2022/07/16 09:04:15;;;;;;;3.37;1.63;;;26.90;36.00;;;;;;7377209;19;20403;-49
2022/07/16 09:06:46;;;;;;;3.90;1.30;;;27.10;35.80;;;;;;7367897;19;20415;-49
2022/07/16 09:09:16;;;;;;;4.60;1.60;;;27.40;35.60;;;;;;7380393;19;20372;-49
2022/07/16 09:11:48;;;;;;;2.40;1.10;;;27.50;34.70;;;;;;7381816;19;20732;-49
2022/07/16 09:14:19;;;;;;;2.50;1.70;;;27.80;34.40;;;;;;7370982;19;20376;-49
2022/07/16 09:16:52;;;;;;;3.17;1.83;;;27.90;34.00;;;;;;7374690;19;20388;-50
2022/07/16 09:19:23;;;;;;;2.20;1.50;;;28.20;33.40;;;;;;7369383;19;20402;-50
2022/07/16 09:22:06;;;;;;;2.33;1.30;;;28.20;33.00;;;;;;7376753;19;20897;-50
2022/07/16 09:24:38;;;;;;;4.00;1.40;;;28.40;32.60;;;;;;7376042;19;20408;-49
2022/07/16 09:27:12;;;;;;;2.30;1.50;;;28.40;33.40;;;;;;7373887;19;20364;-49
2022/07/16 09:29:49;;;;;;;2.97;1.63;;;28.60;32.80;;;;;;7379591;19;20368;-50
2022/07/16 09:32:32;;;;;;;3.20;1.60;;;28.80;32.30;;;;;;7378594;19;20412;-49
2022/07/16 09:35:07;;;;;;;3.37;1.60;;;28.90;31.70;;;;;;7372311;19;20379;-50
2022/07/16 09:37:51;;;;;;;2.30;1.27;;;29.10;31.70;;;;;;7381287;19;20928;-50
2022/07/16 09:40:33;;;;;;;1.90;1.60;;;29.20;31.80;;;;;;7383563;19;20372;-51
2022/07/16 09:43:18;;;;;;;3.37;1.60;;;29.50;31.40;;;;;;7370541;19;20380;-50
2022/07/16 09:45:50;;;;;;;1.60;1.40;;;29.90;31.40;;;;;;7371821;19;20369;-50
2022/07/16 09:48:24;;;;;;;2.60;1.63;;;30.00;30.50;;;;;;7373419;19;20380;-51
2022/07/16 09:50:55;;;;;;;3.67;1.30;;;30.10;30.50;;;;;;7379333;19;20374;-50
2022/07/16 09:53:27;;;;;;;3.03;1.30;;;30.50;30.90;;;;;;7373768;19;20394;-52
2022/07/16 09:56:02;;;;;;;1.80;1.40;;;30.50;30.00;;;;;;7373438;19;20416;-51
2022/07/16 09:58:38;;;;;;;2.23;1.53;;;30.10;30.90;;;;;;7361473;19;20407;-51
2022/07/16 10:01:09;;;;;;;2.03;1.33;;;30.20;31.50;;;;;;7369475;19;20432;-51
2022/07/16 10:03:38;;;;;;;5.43;2.03;;;30.40;30.40;;;;;;7377202;19;20421;-51
2022/07/16 10:06:09;;;;;;;4.90;2.07;;;30.60;30.50;;;;;;7377864;19;20753;-50
2022/07/16 10:08:43;;;;;;;3.70;2.30;;;30.60;30.70;;;;;;7372166;19;20739;-52
2022/07/16 10:11:13;;;;;;;1.90;1.33;;;30.80;30.00;;;;;;7376561;19;20380;-50
2022/07/16 10:13:48;;;;;;;5.10;1.47;;;31.20;30.20;;;;;;7381886;19;20452;-50
2022/07/16 10:16:17;;;;;;;3.70;1.50;;;31.30;29.70;;;;;;7381504;19;20380;-52
2022/07/16 10:18:48;;;;;;;2.93;1.50;;;31.70;29.40;;;;;;7381887;19;20372;-51
2022/07/16 10:21:19;;;;;;;3.50;2.43;;;32.70;29.00;;;;;;7387322;19;20480;-50
2022/07/16 10:23:53;;;;;;;1.73;1.43;;;32.70;28.30;;;;;;7391674;19;20416;-50
2022/07/16 10:26:25;;;;;;;4.30;2.00;;;33.30;28.10;;;;;;7389366;19;20398;-50
2022/07/16 10:28:59;;;;;;;2.20;1.40;;;33.10;27.80;;;;;;7386045;19;20653;-50
2022/07/16 10:31:40;;;;;;;2.00;1.57;;;33.30;28.00;;;;;;7381728;19;20385;-51
2022/07/16 10:34:34;;;;;;;1.83;1.40;;;33.60;27.40;;;;;;7374632;19;20363;-50
2022/07/16 10:37:05;;;;;;;2.23;1.50;;;33.60;27.10;;;;;;7378895;19;20376;-51
2022/07/16 10:39:35;;;;;;;6.10;1.73;;;33.30;27.40;;;;;;7389275;19;20368;-50
2022/07/16 10:42:06;;;;;;;3.33;1.50;;;33.00;27.60;;;;;;7387340;19;20423;-50
2022/07/16 10:44:49;;;;;;;1.73;1.40;;;33.20;27.60;;;;;;7385767;19;20993;-50
2022/07/16 10:47:20;;;;;;;4.97;1.70;;;33.10;27.30;;;;;;7376341;19;20395;-50
2022/07/16 10:50:10;;;;;;;2.87;1.63;;;32.60;27.70;;;;;;7388222;19;20383;-50
2022/07/16 10:52:48;;;;;;;2.90;1.67;;;32.60;27.50;;;;;;7387679;19;20387;-50
2022/07/16 10:55:33;;;;;;;2.07;1.30;;;32.80;27.80;;;;;;7383202;19;20409;-50
2022/07/16 10:58:03;;;;;;;2.83;1.83;;;33.00;27.90;;;;;;7383183;19;20433;-50
2022/07/16 11:00:38;;;;;;;2.17;1.47;;;33.10;27.10;;;;;;7380527;19;20443;-50
2022/07/16 11:03:08;;;;;;;2.73;1.47;;;32.70;27.30;;;;;;7383486;19;20401;-50
2022/07/16 11:05:40;;;;;;;4.03;1.70;;;33.00;27.30;;;;;;7384540;19;20384;-50
2022/07/16 11:08:12;;;;;;;2.70;1.70;;;33.30;27.70;;;;;;7381997;19;20376;-51
2022/07/16 11:10:44;;;;;;;1.83;1.20;;;33.60;27.20;;;;;;7376267;19;20394;-50
2022/07/16 11:13:15;;;;;;;2.93;1.30;;;34.10;26.90;;;;;;7370229;19;20383;-52
2022/07/16 11:15:48;;;;;;;3.00;1.50;;;34.30;26.80;;;;;;7379414;19;21065;-51
2022/07/16 11:18:18;;;;;;;1.87;1.17;;;34.30;26.10;;;;;;7378996;19;20376;-50
2022/07/16 11:20:48;;;;;;;3.03;1.77;;;33.90;26.60;;;;;;7379100;19;20367;-50
2022/07/16 11:23:18;;;;;;;2.07;1.37;;;34.00;26.80;;;;;;7383488;19;20380;-50
2022/07/16 11:25:59;;;;;;;1.93;1.40;;;34.10;26.80;;;;;;7382342;19;20386;-50
2022/07/16 11:28:29;;;;;;;2.50;1.30;;;34.30;26.10;;;;;;7382289;19;20379;-50
2022/07/16 11:31:10;;;;;;;2.80;1.20;;;34.40;26.40;;;;;;7374498;19;20393;-47
2022/07/16 11:33:40;;;;;;;2.93;1.10;;;34.70;25.60;;;;;;7383445;19;20405;-47
2022/07/16 11:36:13;;;;;;;1.93;1.30;;;34.10;26.00;;;;;;7375162;19;20756;-46
2022/07/16 11:38:43;;;;;;;2.70;1.20;;;33.50;26.30;;;;;;7373087;19;20431;-47
2022/07/16 11:41:13;;;;;;;1.90;1.20;;;33.30;26.80;;;;;;7388534;19;20365;-47
2022/07/16 11:43:42;;;;;;;2.50;1.60;;;33.60;26.30;;;;;;7375611;19;20435;-47
2022/07/16 11:46:26;;;;;;;1.57;0.97;;;33.20;26.00;;;;;;7382487;19;20387;-47
2022/07/16 11:48:57;;;;;;;1.90;1.10;;;33.50;26.20;;;;;;7387885;19;20447;-47
2022/07/16 11:51:28;;;;;;;2.03;1.30;;;33.60;25.70;;;;;;7387421;19;20372;-47
2022/07/16 11:53:58;;;;;;;0.97;0.83;;;33.80;25.60;;;;;;7387127;19;20380;-47
2022/07/16 11:56:35;;;;;;;2.10;1.63;;;33.90;25.70;;;;;;7388337;19;20376;-47
2022/07/16 11:59:20;;;;;;;3.67;3.33;;;34.10;25.40;;;;;;7385595;19;20917;-47
2022/07/16 12:02:03;;;;;;;5.10;1.70;;;34.40;25.40;;;;;;7387327;19;20988;-50
2022/07/16 12:04:43;;;;;;;3.53;1.37;;;34.40;25.40;;;;;;7385937;19;20771;-50
2022/07/16 12:07:14;;;;;;;2.90;1.33;;;34.40;25.20;;;;;;7376795;19;20384;-50
2022/07/16 12:09:46;;;;;;;2.53;1.20;;;34.60;25.30;;;;;;7387150;19;20957;-50
2022/07/16 12:12:20;;;;;;;4.40;1.40;;;34.30;26.00;;;;;;7388421;19;20401;-51
2022/07/16 12:14:55;;;;;;;2.70;1.20;;;34.20;25.50;;;;;;7389433;19;20951;-50
2022/07/16 12:17:31;;;;;;;5.20;1.40;;;34.00;25.50;;;;;;7371598;19;20906;-50
2022/07/16 12:20:12;;;;;;;3.20;1.40;;;33.50;26.30;;;;;;7385137;19;20385;-51
2022/07/16 12:22:50;;;;;;;1.60;1.20;;;34.00;26.40;;;;;;7381616;19;20377;-50
2022/07/16 12:25:34;;;;;;;2.07;1.37;;;34.10;26.10;;;;;;7384186;19;20479;-50
2022/07/16 12:28:09;;;;;;;1.70;1.40;;;34.20;26.00;;;;;;7387799;19;20391;-51
2022/07/16 12:30:41;;;;;;;2.03;1.50;;;34.00;26.00;;;;;;7380373;19;20397;-47
2022/07/16 12:33:27;;;;;;;1.67;1.20;;;34.30;26.20;;;;;;7386494;19;20894;-47
2022/07/16 12:36:05;;;;;;;3.87;1.80;;;34.30;26.00;;;;;;7385634;19;20775;-47
2022/07/16 12:38:49;;;;;;;3.70;1.67;;;34.50;26.50;;;;;;7380816;19;20364;-47
2022/07/16 12:41:21;;;;;;;3.20;1.63;;;34.70;26.10;;;;;;7380294;19;20382;-47
2022/07/16 12:43:53;;;;;;;2.80;1.50;;;34.50;26.20;;;;;;7378044;19;20435;-47
2022/07/16 12:46:30;;;;;;;2.17;1.00;;;34.50;26.20;;;;;;7376625;19;20364;-47
2022/07/16 12:49:06;;;;;;;1.30;1.10;;;34.70;25.80;;;;;;7370682;19;20416;-47
2022/07/16 12:51:38;;;;;;;1.70;1.10;;;34.20;26.00;;;;;;7365795;19;20368;-47
2022/07/16 12:54:14;;;;;;;1.90;0.93;;;34.10;26.50;;;;;;7383749;19;20412;-47
2022/07/16 12:59:30;;;;;;;2.37;1.27;;;33.80;26.60;;;;;;7387668;19;20456;-46
2022/07/16 13:02:00;;;;;;;1.50;0.93;;;33.30;27.20;;;;;;7383986;19;20863;-46
2022/07/16 13:04:32;;;;;;;2.13;1.27;;;33.00;27.40;;;;;;7387169;19;20376;-47
2022/07/16 13:07:04;;;;;;;2.27;1.00;;;33.00;27.50;;;;;;7386655;19;20386;-46
2022/07/16 13:09:34;;;;;;;2.83;1.50;;;32.50;27.90;;;;;;7386793;19;20410;-47
2022/07/16 13:12:03;;;;;;;1.37;1.10;;;32.00;28.00;;;;;;7386195;19;20383;-46
2022/07/16 13:14:33;;;;;;;1.27;0.90;;;32.10;28.20;;;;;;7388030;19;20941;-46
2022/07/16 13:17:02;;;;;;;2.07;1.00;;;31.80;28.20;;;;;;7360785;19;20519;-46
2022/07/16 13:19:34;;;;;;;3.20;2.30;;;31.50;28.30;;;;;;7386111;19;20772;-46
2022/07/16 13:22:06;;;;;;;1.83;1.27;;;31.40;28.40;;;;;;7387869;19;20375;-46